createdAt,value
2018-05-17T00:00:24.989Z,19.40
2018-05-17T00:02:59.316Z,19.50
2018-05-17T00:05:33.634Z,19.60
2018-05-17T00:08:08.094Z,19.70
2018-05-17T00:10:42.588Z,19.60
2018-05-17T00:13:17.024Z,19.80
2018-05-17T00:15:51.688Z,19.20
2018-05-17T00:18:26.173Z,19.00
2018-05-17T00:21:00.689Z,19.40
2018-05-17T00:23:35.213Z,19.50
2018-05-17T00:26:09.638Z,19.20
2018-05-17T00:28:44.005Z,19.40
2018-05-17T00:31:18.326Z,19.60
2018-05-17T00:33:52.783Z,19.70
2018-05-17T00:36:28.004Z,20.10
2018-05-17T00:39:02.349Z,20.10
2018-05-17T00:41:36.618Z,19.70
2018-05-17T00:44:11.091Z,19.20
2018-05-17T00:46:45.529Z,19.20
2018-05-17T00:49:20.918Z,19.80
2018-05-17T00:51:56.092Z,19.60
2018-05-17T00:54:30.405Z,19.60
2018-05-17T00:57:04.731Z,19.40
2018-05-17T00:59:39.057Z,19.90
2018-05-17T01:02:13.491Z,19.40
2018-05-17T01:04:48.692Z,20.00
2018-05-17T01:07:23.105Z,20.00
2018-05-17T01:09:57.566Z,20.10
2018-05-17T01:12:31.835Z,20.10
2018-05-17T01:15:06.205Z,20.10
2018-05-17T01:17:40.675Z,19.80
2018-05-17T01:20:15.029Z,19.70
2018-05-17T01:22:49.350Z,19.70
2018-05-17T01:25:24.480Z,19.80
2018-05-17T01:27:58.944Z,19.70
2018-05-17T01:30:33.376Z,19.90
2018-05-17T01:33:07.717Z,19.70
2018-05-17T01:35:41.981Z,19.80
2018-05-17T01:38:27.010Z,19.60
2018-05-17T01:41:01.436Z,19.60
2018-05-17T01:43:35.901Z,19.60
2018-05-17T01:46:10.516Z,19.90
2018-05-17T01:48:45.556Z,19.70
2018-05-17T01:51:20.248Z,19.60
2018-05-17T01:53:54.721Z,19.50
2018-05-17T01:56:29.195Z,19.50
2018-05-17T01:59:04.430Z,19.90
2018-05-17T02:01:38.733Z,19.80
2018-05-17T02:04:13.102Z,19.90
2018-05-17T02:06:47.546Z,19.60
2018-05-17T02:09:21.809Z,19.50
2018-05-17T02:11:56.225Z,19.30
2018-05-17T02:14:30.475Z,19.80
2018-05-17T02:17:04.861Z,20.00
2018-05-17T02:19:39.403Z,19.90
2018-05-17T02:22:13.720Z,19.80
2018-05-17T02:24:48.016Z,19.80
2018-05-17T02:27:23.191Z,19.80
2018-05-17T02:29:57.487Z,19.80
2018-05-17T02:32:31.836Z,19.90
2018-05-17T02:35:07.020Z,20.10
2018-05-17T02:37:41.553Z,20.00
2018-05-17T02:40:16.210Z,19.80
2018-05-17T02:42:50.651Z,19.30
2018-05-17T02:45:25.298Z,19.40
2018-05-17T02:47:59.696Z,19.70
2018-05-17T02:50:34.008Z,19.60
2018-05-17T02:53:08.311Z,19.70
2018-05-17T02:55:42.601Z,19.20
2018-05-17T02:58:16.877Z,19.00
2018-05-17T03:00:51.290Z,19.30
2018-05-17T03:03:25.789Z,18.90
2018-05-17T03:06:00.128Z,18.50
2018-05-17T03:08:34.587Z,18.60
2018-05-17T03:11:08.980Z,18.50
2018-05-17T03:13:43.373Z,18.70
2018-05-17T03:16:17.818Z,18.70
2018-05-17T03:18:52.074Z,18.80
2018-05-17T03:21:26.641Z,19.00
2018-05-17T03:24:01.801Z,18.70
2018-05-17T03:26:36.220Z,18.70
2018-05-17T03:29:11.436Z,18.60
2018-05-17T03:31:46.635Z,18.70
2018-05-17T03:34:21.017Z,18.70
2018-05-17T03:36:56.055Z,19.30
2018-05-17T03:39:30.433Z,19.30
2018-05-17T03:42:04.749Z,19.20
2018-05-17T03:44:39.261Z,19.00
2018-05-17T03:47:14.304Z,19.00
2018-05-17T03:49:48.815Z,19.00
2018-05-17T03:52:23.356Z,19.10
2018-05-17T03:54:57.795Z,19.10
2018-05-17T03:57:32.216Z,19.50
2018-05-17T04:00:06.618Z,19.20
2018-05-17T04:02:52.771Z,19.00
2018-05-17T04:05:39.660Z,18.60
2018-05-17T04:08:13.962Z,18.60
2018-05-17T04:10:48.336Z,19.00
2018-05-17T04:13:23.732Z,19.20
2018-05-17T04:15:58.082Z,19.10
2018-05-17T04:18:32.392Z,19.10
2018-05-17T04:21:06.858Z,18.30
2018-05-17T04:23:41.165Z,19.00
2018-05-17T04:26:15.717Z,19.20
2018-05-17T04:28:51.549Z,19.10
2018-05-17T04:31:26.574Z,19.30
2018-05-17T04:34:01.025Z,19.20
2018-05-17T04:36:35.320Z,19.40
2018-05-17T04:39:09.695Z,19.10
2018-05-17T04:41:43.985Z,19.10
2018-05-17T04:44:18.279Z,19.00
2018-05-17T04:46:52.568Z,19.00
2018-05-17T04:49:26.878Z,19.10
2018-05-17T04:52:02.173Z,19.40
2018-05-17T04:54:36.550Z,19.40
2018-05-17T04:57:10.990Z,19.10
2018-05-17T04:59:45.299Z,19.20
2018-05-17T05:02:19.654Z,18.70
2018-05-17T05:04:53.957Z,18.90
2018-05-17T05:07:28.251Z,18.50
2018-05-17T05:10:02.816Z,18.80
2018-05-17T05:12:38.016Z,18.60
2018-05-17T05:15:12.456Z,18.60
2018-05-17T05:17:46.815Z,18.90
2018-05-17T05:20:21.324Z,19.10
2018-05-17T05:22:55.705Z,19.00
2018-05-17T05:25:30.001Z,18.80
2018-05-17T05:28:04.344Z,18.60
2018-05-17T05:30:38.673Z,18.80
2018-05-17T05:33:13.199Z,19.10
2018-05-17T05:35:47.716Z,18.70
2018-05-17T05:38:22.245Z,18.50
2018-05-17T05:40:56.725Z,18.50
2018-05-17T05:43:31.445Z,18.60
2018-05-17T05:46:05.801Z,18.40
2018-05-17T05:48:40.244Z,18.50
2018-05-17T05:51:14.689Z,18.70
2018-05-17T05:53:49.100Z,18.70
2018-05-17T05:56:24.338Z,19.10
2018-05-17T05:58:58.721Z,19.10
2018-05-17T06:01:33.183Z,18.30
2018-05-17T06:04:07.557Z,17.90
2018-05-17T06:06:41.920Z,17.80
2018-05-17T06:09:16.196Z,18.50
2018-05-17T06:11:50.633Z,18.20
2018-05-17T06:14:24.996Z,17.80
2018-05-17T06:17:00.154Z,18.00
2018-05-17T06:19:34.558Z,17.90
2018-05-17T06:22:09.836Z,17.70
2018-05-17T06:24:44.234Z,19.20
2018-05-17T06:27:18.514Z,19.20
2018-05-17T06:29:52.955Z,18.50
2018-05-17T06:32:27.293Z,19.00
2018-05-17T06:35:01.665Z,18.70
2018-05-17T06:37:36.151Z,18.50
2018-05-17T06:40:10.426Z,18.20
2018-05-17T06:42:44.847Z,17.60
2018-05-17T06:45:19.186Z,18.80
2018-05-17T06:47:54.401Z,17.20
2018-05-17T06:50:28.877Z,17.10
2018-05-17T06:53:03.252Z,16.80
2018-05-17T06:55:37.774Z,16.90
2018-05-17T06:58:12.089Z,16.80
2018-05-17T07:00:46.524Z,18.30
2018-05-17T07:03:20.936Z,18.90
2018-05-17T07:05:55.434Z,19.40
2018-05-17T07:08:29.814Z,19.30
2018-05-17T07:11:04.098Z,18.40
2018-05-17T07:13:38.497Z,18.60
2018-05-17T07:16:12.910Z,18.40
2018-05-17T07:18:47.572Z,18.10
2018-05-17T07:21:21.630Z,17.80
2018-05-17T07:23:56.096Z,17.40
2018-05-17T07:26:30.444Z,17.20
2018-05-17T07:29:04.799Z,17.20
2018-05-17T07:31:40.017Z,17.60
2018-05-17T07:34:14.396Z,17.60
2018-05-17T07:36:48.986Z,18.10
2018-05-17T07:39:23.401Z,18.30
2018-05-17T07:41:57.817Z,19.10
2018-05-17T07:44:32.230Z,18.90
2018-05-17T07:47:06.657Z,18.30
2018-05-17T07:49:40.942Z,18.80
2018-05-17T07:52:15.314Z,18.50
2018-05-17T07:54:49.653Z,18.80
2018-05-17T07:57:24.252Z,18.90
2018-05-17T07:59:58.548Z,19.60
2018-05-17T08:02:33.001Z,19.20
2018-05-17T08:05:07.401Z,19.40
2018-05-17T08:07:41.885Z,20.30
2018-05-17T08:10:16.268Z,20.70
2018-05-17T08:12:50.778Z,21.40
2018-05-17T08:15:25.100Z,22.20
2018-05-17T08:17:59.642Z,22.20
2018-05-17T08:20:34.161Z,21.50
2018-05-17T08:23:08.463Z,22.00
2018-05-17T08:25:42.906Z,21.10
2018-05-17T08:28:17.220Z,20.80
2018-05-17T08:30:51.603Z,21.50
2018-05-17T08:33:26.032Z,21.60
2018-05-17T08:36:00.360Z,22.00
2018-05-17T08:38:34.781Z,22.20
2018-05-17T08:41:09.213Z,21.30
2018-05-17T08:43:43.740Z,21.00
2018-05-17T08:46:18.212Z,21.80
2018-05-17T08:48:52.577Z,21.50
2018-05-17T08:51:27.832Z,21.60
2018-05-17T08:54:02.120Z,21.50
2018-05-17T08:56:36.574Z,21.20
2018-05-17T08:59:11.008Z,21.50
2018-05-17T09:01:45.320Z,22.50
2018-05-17T09:04:19.725Z,23.00
2018-05-17T09:06:54.026Z,22.90
2018-05-17T09:09:28.381Z,23.10
2018-05-17T09:12:02.894Z,23.30
2018-05-17T09:14:37.282Z,23.20
2018-05-17T09:17:12.314Z,22.70
2018-05-17T09:19:46.836Z,22.60
2018-05-17T09:22:21.376Z,23.10
2018-05-17T09:24:55.796Z,22.80
2018-05-17T09:27:30.096Z,21.80
2018-05-17T09:30:04.545Z,20.30
2018-05-17T09:32:38.910Z,21.40
2018-05-17T09:35:13.204Z,22.00
2018-05-17T09:37:47.504Z,23.30
2018-05-17T09:40:21.935Z,24.00
2018-05-17T09:42:56.648Z,23.40
2018-05-17T09:45:31.157Z,23.60
2018-05-17T09:48:05.490Z,23.80
2018-05-17T09:50:39.816Z,24.10
2018-05-17T09:53:14.173Z,24.30
2018-05-17T09:55:48.485Z,24.40
2018-05-17T09:58:22.961Z,23.20
2018-05-17T10:00:57.260Z,23.60
2018-05-17T10:03:31.721Z,24.20
2018-05-17T10:06:06.142Z,24.30
2018-05-17T10:08:40.416Z,24.20
2018-05-17T10:11:14.872Z,24.10
2018-05-17T10:13:49.126Z,23.20
2018-05-17T10:16:23.560Z,23.40
2018-05-17T10:18:57.973Z,23.60
2018-05-17T10:21:32.549Z,23.70
2018-05-17T10:24:07.742Z,22.90
2018-05-17T10:26:42.063Z,22.90
2018-05-17T10:29:16.550Z,21.90
2018-05-17T10:31:51.045Z,22.80
2018-05-17T10:34:25.478Z,23.10
2018-05-17T10:36:59.884Z,23.40
2018-05-17T10:39:34.352Z,23.60
2018-05-17T10:42:08.730Z,22.30
2018-05-17T10:44:43.253Z,21.10
2018-05-17T10:47:17.886Z,20.80
2018-05-17T10:49:52.384Z,21.50
2018-05-17T10:52:27.745Z,22.10
2018-05-17T10:55:02.081Z,22.00
2018-05-17T10:57:36.613Z,22.40
2018-05-17T11:00:10.929Z,22.90
2018-05-17T11:02:45.355Z,23.10
2018-05-17T11:05:19.693Z,22.40
2018-05-17T11:07:54.073Z,22.90
2018-05-17T11:10:29.306Z,21.50
2018-05-17T11:13:04.353Z,22.90
2018-05-17T11:15:38.722Z,22.90
2018-05-17T11:18:13.097Z,23.00
2018-05-17T11:20:47.380Z,21.80
2018-05-17T11:23:21.718Z,21.60
2018-05-17T11:25:56.277Z,21.50
2018-05-17T11:28:30.573Z,21.50
2018-05-17T11:31:04.992Z,21.20
2018-05-17T11:33:39.313Z,21.70
2018-05-17T11:36:13.717Z,22.10
2018-05-17T11:38:48.146Z,22.20
2018-05-17T11:41:22.562Z,22.60
2018-05-17T11:43:56.920Z,23.00
2018-05-17T11:46:31.223Z,22.80
2018-05-17T11:49:05.741Z,21.10
2018-05-17T11:51:40.054Z,21.70
2018-05-17T11:54:14.484Z,22.50
2018-05-17T11:56:48.885Z,22.50
2018-05-17T11:59:23.290Z,21.80
2018-05-17T12:01:57.635Z,21.90
2018-05-17T12:04:31.924Z,22.40
2018-05-17T12:07:06.575Z,22.50
2018-05-17T12:09:40.870Z,21.40
2018-05-17T12:12:15.318Z,21.40
2018-05-17T12:14:49.746Z,22.10
2018-05-17T12:17:24.057Z,22.80
2018-05-17T12:19:59.293Z,22.00
2018-05-17T12:22:33.716Z,21.90
2018-05-17T12:25:08.119Z,21.60
2018-05-17T12:27:42.619Z,21.40
2018-05-17T12:30:17.096Z,21.50
2018-05-17T12:32:51.483Z,22.00
2018-05-17T12:35:25.917Z,22.60
2018-05-17T12:38:00.445Z,22.80
2018-05-17T12:40:35.356Z,22.50
2018-05-17T12:43:09.708Z,22.70
2018-05-17T12:45:44.012Z,22.90
2018-05-17T12:48:18.597Z,22.60
2018-05-17T12:50:53.146Z,22.30
2018-05-17T12:53:28.194Z,22.30
2018-05-17T12:56:02.711Z,22.30
2018-05-17T12:58:37.800Z,21.40
2018-05-17T13:01:12.126Z,21.30
2018-05-17T13:03:46.440Z,22.20
2018-05-17T13:06:20.902Z,22.70
2018-05-17T13:08:55.238Z,23.00
2018-05-17T13:11:29.541Z,23.00
2018-05-17T13:14:03.934Z,22.70
2018-05-17T13:16:38.229Z,22.90
2018-05-17T13:19:12.703Z,23.00
2018-05-17T13:21:47.227Z,23.10
2018-05-17T13:24:21.657Z,22.10
2018-05-17T13:26:56.160Z,22.30
2018-05-17T13:29:30.457Z,22.30
2018-05-17T13:32:04.848Z,21.90
2018-05-17T13:34:39.107Z,21.90
2018-05-17T13:37:13.604Z,22.40
2018-05-17T13:39:47.968Z,22.80
2018-05-17T13:42:22.472Z,22.90
2018-05-17T13:44:56.791Z,23.10
2018-05-17T13:47:31.217Z,22.90
2018-05-17T13:50:05.432Z,22.80
2018-05-17T13:52:39.752Z,22.30
2018-05-17T13:55:14.120Z,22.50
2018-05-17T13:57:48.489Z,22.40
2018-05-17T14:00:22.956Z,21.70
2018-05-17T14:02:57.399Z,22.20
2018-05-17T14:05:31.769Z,22.30
2018-05-17T14:08:06.179Z,21.70
2018-05-17T14:10:40.844Z,21.70
2018-05-17T14:13:15.360Z,21.70
2018-05-17T14:15:49.872Z,21.90
2018-05-17T14:18:24.449Z,22.60
2018-05-17T14:20:58.712Z,22.50
2018-05-17T14:23:33.032Z,22.00
2018-05-17T14:26:07.401Z,21.40
2018-05-17T14:28:41.841Z,22.10
2018-05-17T14:31:16.294Z,22.70
2018-05-17T14:33:50.901Z,22.90
2018-05-17T14:36:25.160Z,22.50
2018-05-17T14:38:59.517Z,21.20
2018-05-17T14:41:33.940Z,21.20
2018-05-17T14:44:08.391Z,21.30
2018-05-17T14:46:42.821Z,22.00
2018-05-17T14:49:17.264Z,21.30
2018-05-17T14:51:51.652Z,21.30
2018-05-17T14:54:26.166Z,22.00
2018-05-17T14:57:00.596Z,22.20
2018-05-17T14:59:34.897Z,22.30
2018-05-17T15:02:09.261Z,21.60
2018-05-17T15:04:43.557Z,20.70
2018-05-17T15:07:17.926Z,21.30
2018-05-17T15:09:52.356Z,21.90
2018-05-17T15:12:26.823Z,20.80
2018-05-17T15:15:01.224Z,20.60
2018-05-17T15:17:35.683Z,21.20
2018-05-17T15:20:10.244Z,22.30
2018-05-17T15:22:44.902Z,22.40
2018-05-17T15:25:19.246Z,22.70
2018-05-17T15:27:53.746Z,22.30
2018-05-17T15:30:28.973Z,22.00
2018-05-17T15:33:03.440Z,22.00
2018-05-17T15:35:37.705Z,22.70
2018-05-17T15:38:12.160Z,22.00
2018-05-17T15:40:46.446Z,22.50
2018-05-17T15:43:20.744Z,21.90
2018-05-17T15:45:55.103Z,22.60
2018-05-17T15:48:29.533Z,22.90
2018-05-17T15:51:03.930Z,22.10
2018-05-17T15:53:38.417Z,22.30
2018-05-17T15:56:12.717Z,22.70
2018-05-17T15:58:47.321Z,22.70
2018-05-17T16:01:21.824Z,22.80
2018-05-17T16:03:56.151Z,21.90
2018-05-17T16:06:30.514Z,21.10
2018-05-17T16:09:05.643Z,20.20
2018-05-17T16:11:40.800Z,21.10
2018-05-17T16:14:15.129Z,21.10
2018-05-17T16:16:50.364Z,20.90
2018-05-17T16:19:24.817Z,20.80
2018-05-17T16:21:59.112Z,20.10
2018-05-17T16:24:33.444Z,20.00
2018-05-17T16:27:07.744Z,20.20
2018-05-17T16:29:42.066Z,20.40
2018-05-17T16:32:16.631Z,20.70
2018-05-17T16:34:51.171Z,20.80
2018-05-17T16:37:25.454Z,20.40
2018-05-17T16:39:59.853Z,19.80
2018-05-17T16:42:34.388Z,19.50
2018-05-17T16:45:08.911Z,20.00
2018-05-17T16:47:43.439Z,20.10
2018-05-17T16:50:18.066Z,20.00
2018-05-17T16:52:52.550Z,20.00
2018-05-17T16:55:26.792Z,19.80
2018-05-17T16:58:01.350Z,20.00
2018-05-17T17:00:35.790Z,19.70
2018-05-17T17:03:10.041Z,19.10
2018-05-17T17:05:45.995Z,19.80
2018-05-17T17:08:20.345Z,19.80
2018-05-17T17:10:55.605Z,19.60
2018-05-17T17:13:30.023Z,19.50
2018-05-17T17:16:04.472Z,19.30
2018-05-17T17:18:39.045Z,19.30
2018-05-17T17:21:13.334Z,18.90
2018-05-17T17:23:47.696Z,19.60
2018-05-17T17:26:22.006Z,19.90
2018-05-17T17:28:56.413Z,19.40
2018-05-17T17:31:30.938Z,19.60
2018-05-17T17:34:05.338Z,19.60
2018-05-17T17:36:40.584Z,19.00
2018-05-17T17:39:15.022Z,18.90
2018-05-17T17:41:49.451Z,19.60
2018-05-17T17:44:23.938Z,19.20
2018-05-17T17:46:58.608Z,19.10
2018-05-17T17:49:32.866Z,18.50
2018-05-17T17:52:07.130Z,18.70
2018-05-17T17:54:41.462Z,18.40
2018-05-17T17:57:15.966Z,19.00
2018-05-17T17:59:50.593Z,18.60
2018-05-17T18:02:25.115Z,18.10
2018-05-17T18:04:59.419Z,17.90
2018-05-17T18:07:33.805Z,17.50
2018-05-17T18:10:08.124Z,18.20
2018-05-17T18:12:42.456Z,18.70
2018-05-17T18:15:16.779Z,18.60
2018-05-17T18:17:51.044Z,18.30
2018-05-17T18:20:26.152Z,17.80
2018-05-17T18:23:00.661Z,17.70
2018-05-17T18:25:35.145Z,17.90
2018-05-17T18:28:09.432Z,18.50
2018-05-17T18:30:43.868Z,18.20
2018-05-17T18:33:18.970Z,18.30
2018-05-17T18:35:53.325Z,18.30
2018-05-17T18:38:27.620Z,18.80
2018-05-17T18:41:02.200Z,18.80
2018-05-17T18:43:36.764Z,18.70
2018-05-17T18:46:11.213Z,18.80
2018-05-17T18:48:45.619Z,19.40
2018-05-17T18:51:20.024Z,18.70
2018-05-17T18:53:54.341Z,18.40
2018-05-17T18:56:28.868Z,18.90
2018-05-17T18:59:03.182Z,18.90
2018-05-17T19:01:39.253Z,19.40
2018-05-17T19:04:13.572Z,19.30
2018-05-17T19:06:48.089Z,19.00
2018-05-17T19:09:22.347Z,18.90
2018-05-17T19:11:57.453Z,17.90
2018-05-17T19:14:31.886Z,17.90
2018-05-17T19:17:06.396Z,18.70
2018-05-17T19:19:40.737Z,18.50
2018-05-17T19:22:15.071Z,18.60
2018-05-17T19:24:49.561Z,18.60
2018-05-17T19:27:23.998Z,18.70
2018-05-17T19:29:58.376Z,18.20
2018-05-17T19:32:32.915Z,17.60
2018-05-17T19:35:07.535Z,18.20
2018-05-17T19:37:41.842Z,18.60
2018-05-17T19:40:16.305Z,18.70
2018-05-17T19:42:50.690Z,19.20
2018-05-17T19:45:25.129Z,19.20
2018-05-17T19:47:59.417Z,19.00
2018-05-17T19:50:33.700Z,19.10
2018-05-17T19:53:08.881Z,19.10
2018-05-17T19:55:43.339Z,19.10
2018-05-17T19:58:17.655Z,19.10
2018-05-17T20:00:51.937Z,18.70
2018-05-17T20:03:26.503Z,19.00
2018-05-17T20:06:00.768Z,19.20
2018-05-17T20:08:35.192Z,19.10
2018-05-17T20:11:10.945Z,19.20
2018-05-17T20:13:45.372Z,19.20
2018-05-17T20:16:19.864Z,19.10
2018-05-17T20:18:54.174Z,18.90
2018-05-17T20:21:28.664Z,19.00
2018-05-17T20:24:02.932Z,19.00
2018-05-17T20:26:37.267Z,19.50
2018-05-17T20:29:11.726Z,19.60
2018-05-17T20:31:46.025Z,19.60
2018-05-17T20:34:20.577Z,19.90
2018-05-17T20:36:54.856Z,20.00
2018-05-17T20:39:29.899Z,19.60
2018-05-17T20:42:04.398Z,19.60
2018-05-17T20:44:38.856Z,19.50
2018-05-17T20:47:13.165Z,19.30
2018-05-17T20:49:47.484Z,19.20
2018-05-17T20:52:22.021Z,18.70
2018-05-17T20:54:57.969Z,18.90
2018-05-17T20:57:32.392Z,18.90
2018-05-17T21:00:06.805Z,18.90
2018-05-17T21:02:41.267Z,19.20
2018-05-17T21:05:16.563Z,19.30
2018-05-17T21:07:51.805Z,19.00
2018-05-17T21:10:26.324Z,19.00
2018-05-17T21:13:00.713Z,19.00
2018-05-17T21:15:35.040Z,18.90
2018-05-17T21:18:09.379Z,18.90
2018-05-17T21:20:44.385Z,19.20
2018-05-17T21:23:18.712Z,19.20
2018-05-17T21:25:53.290Z,19.20
2018-05-17T21:28:27.640Z,19.20
2018-05-17T21:31:02.011Z,19.20
2018-05-17T21:33:37.025Z,19.10
2018-05-17T21:36:11.531Z,19.10
2018-05-17T21:38:45.905Z,19.00
2018-05-17T21:41:20.200Z,19.00
2018-05-17T21:43:54.646Z,19.10
2018-05-17T21:46:29.051Z,18.90
2018-05-17T21:49:04.289Z,18.90
2018-05-17T21:51:38.781Z,18.80
2018-05-17T21:54:13.069Z,18.90
2018-05-17T21:56:47.666Z,18.80
2018-05-17T21:59:22.097Z,19.10
2018-05-17T22:01:56.478Z,18.80
2018-05-17T22:04:30.921Z,19.30
2018-05-17T22:07:05.199Z,18.90
2018-05-17T22:09:39.462Z,19.20
2018-05-17T22:12:13.755Z,19.40
2018-05-17T22:14:48.181Z,19.20
2018-05-17T22:17:22.592Z,19.10
2018-05-17T22:19:56.924Z,19.20
2018-05-17T22:22:32.061Z,19.10
2018-05-17T22:25:06.394Z,19.00
2018-05-17T22:27:40.688Z,19.30
2018-05-17T22:30:15.114Z,19.30
2018-05-17T22:32:49.520Z,19.20
2018-05-17T22:35:23.864Z,18.70
2018-05-17T22:37:58.349Z,19.20
2018-05-17T22:40:32.659Z,19.40
2018-05-17T22:43:07.019Z,19.50
2018-05-17T22:45:41.320Z,19.00
2018-05-17T22:48:15.861Z,19.10
2018-05-17T22:50:51.097Z,19.40
2018-05-17T22:53:25.436Z,19.20
2018-05-17T22:55:59.810Z,19.10
2018-05-17T22:58:34.369Z,18.90
2018-05-17T23:01:08.874Z,19.00
2018-05-17T23:03:43.206Z,19.50
2018-05-17T23:06:17.590Z,19.30
2018-05-17T23:08:52.017Z,19.00
2018-05-17T23:11:26.313Z,19.40
2018-05-17T23:14:00.673Z,19.30
2018-05-17T23:16:35.095Z,19.20
2018-05-17T23:19:09.521Z,19.00
2018-05-17T23:21:43.857Z,18.50
2018-05-17T23:24:18.176Z,18.70
2018-05-17T23:26:52.700Z,19.10
2018-05-17T23:29:27.021Z,19.10
2018-05-17T23:32:01.554Z,18.90
2018-05-17T23:34:36.095Z,18.80
2018-05-17T23:37:19.078Z,19.00
2018-05-17T23:39:53.802Z,19.00
2018-05-17T23:42:28.996Z,18.80
2018-05-17T23:45:03.266Z,18.70
2018-05-17T23:47:37.778Z,18.60
2018-05-17T23:50:12.177Z,18.80
2018-05-17T23:52:46.471Z,19.20
2018-05-17T23:55:20.833Z,19.20
2018-05-17T23:57:55.263Z,19.20
